createdAt,value
2019-03-26T00:01:15.318Z,11.77
2019-03-26T00:03:45.598Z,13.43
2019-03-26T00:06:16.730Z,15.03
2019-03-26T00:08:47.048Z,14.63
2019-03-26T00:11:17.688Z,11.57
2019-03-26T00:13:48.596Z,13.37
2019-03-26T00:16:18.673Z,14.87
2019-03-26T00:18:48.927Z,16.23
2019-03-26T00:21:19.700Z,15.50
2019-03-26T00:23:50.709Z,13.43
2019-03-26T00:26:21.457Z,12.50
2019-03-26T00:28:52.498Z,18.50
2019-03-26T00:31:24.518Z,22.10
2019-03-26T00:33:54.823Z,17.40
2019-03-26T00:36:24.716Z,26.17
2019-03-26T00:38:54.029Z,20.43
2019-03-26T00:41:25.123Z,26.97
2019-03-26T00:43:56.475Z,16.20
2019-03-26T00:46:27.598Z,19.23
2019-03-26T00:48:58.034Z,16.57
2019-03-26T00:51:28.741Z,16.57
2019-03-26T00:53:59.790Z,15.20
2019-03-26T00:56:32.384Z,18.77
2019-03-26T00:59:06.456Z,16.27
2019-03-26T01:01:36.735Z,19.37
2019-03-26T01:04:08.927Z,14.57
2019-03-26T01:06:39.933Z,14.73
2019-03-26T01:09:11.834Z,11.60
2019-03-26T01:11:41.712Z,14.60
2019-03-26T01:14:11.494Z,9.83
2019-03-26T01:16:41.783Z,9.17
2019-03-26T01:19:12.531Z,12.87
2019-03-26T01:21:44.947Z,12.60
2019-03-26T01:24:14.678Z,11.43
2019-03-26T01:26:45.685Z,12.03
2019-03-26T01:29:15.841Z,14.33
2019-03-26T01:31:46.650Z,13.33
2019-03-26T01:34:17.633Z,14.67
2019-03-26T01:36:48.773Z,12.70
2019-03-26T01:39:19.945Z,21.20
2019-03-26T01:41:51.473Z,19.27
2019-03-26T01:44:22.630Z,19.50
2019-03-26T01:46:54.609Z,11.67
2019-03-26T01:49:25.747Z,17.37
2019-03-26T01:51:57.481Z,11.23
2019-03-26T01:54:27.785Z,11.73
2019-03-26T01:57:01.337Z,12.20
2019-03-26T01:59:32.149Z,19.30
2019-03-26T02:02:04.529Z,13.60
2019-03-26T02:04:35.558Z,11.10
2019-03-26T02:07:05.769Z,11.27
2019-03-26T02:09:36.822Z,11.17
2019-03-26T02:12:07.729Z,13.13
2019-03-26T02:14:38.385Z,11.43
2019-03-26T02:17:10.105Z,9.97
2019-03-26T02:19:42.308Z,14.23
2019-03-26T02:22:11.671Z,11.27
2019-03-26T02:24:41.742Z,14.23
2019-03-26T02:27:13.642Z,21.07
2019-03-26T02:29:46.089Z,14.97
2019-03-26T02:32:15.987Z,16.13
2019-03-26T02:34:46.935Z,11.40
2019-03-26T02:37:16.405Z,14.77
2019-03-26T02:39:47.220Z,14.83
2019-03-26T02:42:18.029Z,11.67
2019-03-26T02:44:48.958Z,16.33
2019-03-26T02:47:18.332Z,16.90
2019-03-26T02:49:49.816Z,15.77
2019-03-26T02:52:20.996Z,12.03
2019-03-26T02:54:51.743Z,13.27
2019-03-26T02:57:23.843Z,16.67
2019-03-26T02:59:56.124Z,14.50
2019-03-26T03:02:27.324Z,10.60
2019-03-26T03:04:57.329Z,15.07
2019-03-26T03:07:26.585Z,11.40
2019-03-26T03:09:56.685Z,10.57
2019-03-26T03:12:29.149Z,10.97
2019-03-26T03:14:59.352Z,17.03
2019-03-26T03:17:30.624Z,10.67
2019-03-26T03:20:01.011Z,12.90
2019-03-26T03:22:31.864Z,11.47
2019-03-26T03:25:02.589Z,16.03
2019-03-26T03:27:33.304Z,16.27
2019-03-26T03:30:03.468Z,15.83
2019-03-26T03:32:34.625Z,17.60
2019-03-26T03:35:07.466Z,15.30
2019-03-26T03:37:38.234Z,15.60
2019-03-26T03:40:08.535Z,25.20
2019-03-26T03:42:39.876Z,18.20
2019-03-26T03:45:10.412Z,14.50
2019-03-26T03:47:40.806Z,10.83
2019-03-26T03:50:10.795Z,15.20
2019-03-26T03:52:41.285Z,10.87
2019-03-26T03:55:15.251Z,13.13
2019-03-26T03:57:52.543Z,14.70
2019-03-26T04:00:39.035Z,11.77
2019-03-26T04:03:12.695Z,12.37
2019-03-26T04:05:42.937Z,14.70
2019-03-26T04:08:16.818Z,13.83
2019-03-26T04:10:47.340Z,15.77
2019-03-26T04:13:18.102Z,10.83
2019-03-26T04:15:48.066Z,18.70
2019-03-26T04:18:19.033Z,13.23
2019-03-26T04:20:48.986Z,12.43
2019-03-26T04:23:20.970Z,16.40
2019-03-26T04:25:51.240Z,17.10
2019-03-26T04:28:22.071Z,13.97
2019-03-26T04:30:52.474Z,12.80
2019-03-26T04:33:23.337Z,17.27
2019-03-26T04:35:55.986Z,15.13
2019-03-26T04:38:27.128Z,14.57
2019-03-26T04:40:57.442Z,12.93
2019-03-26T04:43:28.392Z,13.27
2019-03-26T04:45:59.119Z,18.33
2019-03-26T04:48:29.278Z,20.67
2019-03-26T04:51:03.372Z,18.67
2019-03-26T04:53:34.403Z,13.53
2019-03-26T04:56:04.262Z,19.57
2019-03-26T04:58:36.018Z,13.90
2019-03-26T05:01:08.317Z,14.43
2019-03-26T05:03:38.197Z,12.93
2019-03-26T05:06:08.277Z,14.00
2019-03-26T05:08:40.454Z,13.07
2019-03-26T05:11:10.361Z,12.80
2019-03-26T05:13:40.242Z,17.00
2019-03-26T05:16:10.010Z,12.63
2019-03-26T05:18:41.033Z,13.83
2019-03-26T05:21:12.166Z,13.97
2019-03-26T05:23:43.125Z,11.33
2019-03-26T05:26:14.995Z,10.70
2019-03-26T05:28:47.361Z,13.20
2019-03-26T05:31:18.196Z,14.23
2019-03-26T05:33:48.864Z,10.57
2019-03-26T05:36:19.925Z,14.33
2019-03-26T05:38:50.121Z,13.50
2019-03-26T05:41:20.545Z,14.47
2019-03-26T05:43:53.382Z,21.83
2019-03-26T05:46:23.754Z,16.30
2019-03-26T05:48:56.134Z,17.63
2019-03-26T05:51:28.690Z,17.03
2019-03-26T05:54:00.862Z,14.53
2019-03-26T05:56:30.720Z,11.77
2019-03-26T05:59:00.389Z,19.77
2019-03-26T06:01:31.544Z,15.23
2019-03-26T06:04:01.490Z,17.10
2019-03-26T06:06:32.223Z,21.27
2019-03-26T06:09:03.241Z,20.50
2019-03-26T06:11:35.889Z,14.20
2019-03-26T06:14:06.781Z,18.00
2019-03-26T06:16:38.635Z,13.07
2019-03-26T06:19:10.872Z,15.57
2019-03-26T06:21:42.062Z,19.57
2019-03-26T06:24:12.378Z,12.77
2019-03-26T06:26:44.877Z,18.67
2019-03-26T06:29:15.390Z,20.87
2019-03-26T06:31:46.507Z,12.33
2019-03-26T06:34:17.462Z,15.47
2019-03-26T06:36:48.484Z,14.27
2019-03-26T06:39:20.291Z,17.60
2019-03-26T06:41:51.673Z,15.93
2019-03-26T06:44:22.822Z,18.27
2019-03-26T06:46:53.757Z,14.93
2019-03-26T06:49:23.852Z,17.03
2019-03-26T06:51:54.980Z,18.60
2019-03-26T06:54:26.106Z,17.50
2019-03-26T06:56:57.894Z,21.47
2019-03-26T06:59:32.745Z,23.27
2019-03-26T07:02:03.412Z,18.93
2019-03-26T07:04:33.484Z,13.37
2019-03-26T07:07:06.386Z,18.70
2019-03-26T07:09:37.362Z,20.53
2019-03-26T07:12:08.049Z,15.50
2019-03-26T07:14:38.210Z,16.80
2019-03-26T07:17:08.961Z,21.50
2019-03-26T07:19:38.750Z,18.57
2019-03-26T07:22:09.761Z,18.30
2019-03-26T07:24:40.929Z,23.03
2019-03-26T07:27:12.137Z,17.83
2019-03-26T07:29:42.341Z,19.97
2019-03-26T07:32:12.264Z,19.23
2019-03-26T07:34:43.898Z,17.83
2019-03-26T07:37:17.877Z,21.00
2019-03-26T07:39:48.749Z,17.07
2019-03-26T07:42:20.366Z,17.83
2019-03-26T07:44:50.462Z,13.07
2019-03-26T07:47:21.690Z,19.37
2019-03-26T07:49:53.465Z,15.17
2019-03-26T07:52:24.449Z,22.53
2019-03-26T07:54:56.122Z,20.17
2019-03-26T07:57:26.313Z,14.67
2019-03-26T07:59:57.474Z,19.67
2019-03-26T08:02:28.953Z,20.73
2019-03-26T08:04:59.727Z,15.03
2019-03-26T08:07:30.890Z,15.27
2019-03-26T08:10:01.986Z,26.33
2019-03-26T08:12:33.130Z,25.70
2019-03-26T08:15:03.027Z,17.07
2019-03-26T08:17:32.963Z,18.13
2019-03-26T08:20:03.093Z,11.37
2019-03-26T08:22:33.517Z,22.23
2019-03-26T08:25:03.612Z,14.30
2019-03-26T08:27:34.566Z,13.60
2019-03-26T08:30:06.968Z,14.53
2019-03-26T08:32:38.153Z,11.37
2019-03-26T08:35:09.367Z,18.00
2019-03-26T08:37:41.706Z,16.87
2019-03-26T08:40:14.071Z,11.67
2019-03-26T08:42:44.271Z,14.30
2019-03-26T08:45:16.885Z,17.83
2019-03-26T08:47:48.055Z,16.53
2019-03-26T08:50:18.432Z,11.37
2019-03-26T08:52:51.291Z,15.20
2019-03-26T08:55:21.115Z,18.97
2019-03-26T08:57:53.066Z,14.97
2019-03-26T09:00:25.026Z,9.10
2019-03-26T09:02:56.070Z,16.83
2019-03-26T09:05:26.277Z,13.80
2019-03-26T09:07:56.474Z,17.90
2019-03-26T09:10:27.632Z,16.17
2019-03-26T09:12:57.797Z,16.17
2019-03-26T09:15:29.677Z,10.73
2019-03-26T09:18:00.702Z,11.67
2019-03-26T09:20:34.793Z,15.77
2019-03-26T09:23:06.941Z,16.50
2019-03-26T09:25:37.141Z,13.03
2019-03-26T09:28:08.914Z,12.33
2019-03-26T09:30:39.814Z,18.90
2019-03-26T09:33:11.070Z,14.57
2019-03-26T09:35:44.429Z,13.30
2019-03-26T09:38:15.469Z,15.33
2019-03-26T09:40:48.081Z,11.03
2019-03-26T09:43:19.981Z,11.00
2019-03-26T09:45:51.037Z,14.23
2019-03-26T09:48:22.195Z,12.43
2019-03-26T09:50:52.396Z,12.30
2019-03-26T09:53:25.689Z,20.10
2019-03-26T09:55:57.577Z,14.13
2019-03-26T09:58:27.677Z,6.67
2019-03-26T10:00:58.831Z,10.43
2019-03-26T10:03:29.113Z,14.90
2019-03-26T10:06:01.464Z,10.60
2019-03-26T10:08:31.399Z,9.07
2019-03-26T10:11:02.106Z,12.17
2019-03-26T10:13:36.205Z,10.27
2019-03-26T10:16:06.699Z,12.17
2019-03-26T10:18:38.116Z,11.60
2019-03-26T10:21:08.322Z,12.57
2019-03-26T10:23:38.223Z,19.90
2019-03-26T10:26:09.229Z,17.00
2019-03-26T10:28:40.401Z,14.93
2019-03-26T10:31:12.589Z,11.90
2019-03-26T10:33:43.644Z,14.67
2019-03-26T10:36:15.861Z,10.07
2019-03-26T10:38:49.966Z,15.47
2019-03-26T10:41:20.162Z,13.27
2019-03-26T10:43:52.063Z,9.77
2019-03-26T10:46:23.129Z,14.33
2019-03-26T10:48:54.574Z,10.80
2019-03-26T10:51:26.234Z,10.10
2019-03-26T10:53:57.405Z,14.83
2019-03-26T10:56:28.242Z,8.63
2019-03-26T10:59:04.049Z,8.93
2019-03-26T11:01:33.090Z,19.37
2019-03-26T11:04:03.286Z,12.47
2019-03-26T11:06:34.234Z,13.70
2019-03-26T11:09:18.805Z,14.00
2019-03-26T11:11:38.985Z,8.30
2019-03-26T11:14:09.298Z,12.57
2019-03-26T11:16:42.134Z,12.33
2019-03-26T11:19:12.901Z,13.60
2019-03-26T11:21:43.023Z,15.57
2019-03-26T11:24:13.441Z,14.37
2019-03-26T11:26:44.285Z,14.27
2019-03-26T11:29:15.309Z,12.60
2019-03-26T11:31:46.420Z,9.20
2019-03-26T11:34:17.250Z,11.77
2019-03-26T11:36:47.342Z,17.03
2019-03-26T11:39:32.109Z,11.17
2019-03-26T11:41:53.480Z,12.67
2019-03-26T11:44:25.343Z,10.77
2019-03-26T11:46:58.418Z,12.50
2019-03-26T11:49:29.013Z,14.20
2019-03-26T11:52:00.102Z,11.33
2019-03-26T11:54:32.211Z,9.53
2019-03-26T11:57:02.496Z,13.20
2019-03-26T11:59:32.693Z,15.03
2019-03-26T12:02:03.850Z,14.07
2019-03-26T12:04:34.645Z,8.63
2019-03-26T12:07:07.017Z,7.73
2019-03-26T12:09:46.210Z,12.07
2019-03-26T12:12:10.588Z,12.23
2019-03-26T12:14:41.215Z,15.07
2019-03-26T12:17:14.674Z,12.17
2019-03-26T12:19:43.190Z,14.00
2019-03-26T12:22:14.406Z,12.67
2019-03-26T12:24:46.701Z,9.80
2019-03-26T12:27:16.561Z,14.50
2019-03-26T12:29:47.266Z,12.13
2019-03-26T12:32:17.465Z,13.33
2019-03-26T12:34:47.658Z,10.83
2019-03-26T12:37:17.849Z,8.07
2019-03-26T12:39:58.807Z,9.47
2019-03-26T12:42:22.102Z,13.63
2019-03-26T12:44:52.625Z,15.23
2019-03-26T12:47:23.377Z,9.83
2019-03-26T12:49:53.452Z,11.57
2019-03-26T12:52:23.633Z,7.60
2019-03-26T12:54:57.205Z,13.47
2019-03-26T12:57:28.737Z,11.10
2019-03-26T12:59:59.553Z,12.33
2019-03-26T13:02:29.642Z,15.43
2019-03-26T13:05:00.730Z,15.57
2019-03-26T13:07:31.838Z,13.27
2019-03-26T13:10:13.271Z,12.47
2019-03-26T13:12:36.513Z,13.53
2019-03-26T13:15:09.023Z,14.63
2019-03-26T13:17:40.458Z,12.90
2019-03-26T13:20:12.461Z,14.57
2019-03-26T13:22:43.343Z,14.53
2019-03-26T13:25:13.175Z,18.80
2019-03-26T13:27:44.654Z,12.87
2019-03-26T13:30:18.417Z,14.27
2019-03-26T13:32:49.670Z,14.33
2019-03-26T13:35:19.550Z,10.03
2019-03-26T13:37:50.374Z,15.53
2019-03-26T13:40:27.178Z,13.50
2019-03-26T13:42:53.396Z,14.93
2019-03-26T13:45:23.666Z,14.83
2019-03-26T13:47:54.845Z,13.97
2019-03-26T13:50:25.561Z,14.80
2019-03-26T13:52:55.297Z,17.03
2019-03-26T13:55:25.033Z,13.73
2019-03-26T13:57:55.174Z,11.10
2019-03-26T14:00:38.295Z,10.37
2019-03-26T14:03:08.749Z,16.23
2019-03-26T14:05:39.895Z,17.07
2019-03-26T14:08:11.024Z,15.97
2019-03-26T14:10:42.649Z,13.70
2019-03-26T14:13:12.561Z,14.87
2019-03-26T14:15:42.333Z,15.83
2019-03-26T14:18:12.122Z,11.30
2019-03-26T14:20:42.285Z,20.30
2019-03-26T14:23:12.207Z,15.10
2019-03-26T14:25:45.527Z,19.47
2019-03-26T14:28:15.305Z,13.67
2019-03-26T14:30:45.706Z,11.57
2019-03-26T14:33:16.928Z,10.00
2019-03-26T14:35:49.326Z,12.40
2019-03-26T14:38:20.083Z,12.73
2019-03-26T14:40:55.196Z,13.10
2019-03-26T14:43:22.242Z,14.80
2019-03-26T14:45:54.646Z,14.00
2019-03-26T14:48:24.401Z,14.97
2019-03-26T14:50:54.182Z,11.83
2019-03-26T14:53:23.957Z,13.33
2019-03-26T14:55:56.683Z,12.83
2019-03-26T14:58:28.642Z,12.93
2019-03-26T15:01:00.389Z,12.23
2019-03-26T15:03:30.119Z,16.17
2019-03-26T15:06:04.483Z,11.50
2019-03-26T15:08:33.990Z,22.20
2019-03-26T15:11:08.181Z,15.13
2019-03-26T15:13:35.754Z,9.30
2019-03-26T15:16:07.856Z,11.33
2019-03-26T15:18:38.688Z,9.50
2019-03-26T15:21:09.409Z,17.23
2019-03-26T15:23:40.209Z,14.73
2019-03-26T15:26:11.633Z,13.43
2019-03-26T15:28:43.454Z,15.07
2019-03-26T15:31:14.545Z,16.80
2019-03-26T15:33:47.449Z,16.43
2019-03-26T15:36:17.642Z,13.20
2019-03-26T15:38:48.889Z,12.80
2019-03-26T15:41:21.966Z,13.43
2019-03-26T15:43:52.945Z,12.67
2019-03-26T15:46:23.806Z,14.53
2019-03-26T15:48:55.690Z,11.93
2019-03-26T15:51:27.701Z,15.23
2019-03-26T15:53:58.445Z,10.27
2019-03-26T15:56:28.481Z,17.43
2019-03-26T15:58:59.352Z,18.47
2019-03-26T16:01:30.211Z,12.90
2019-03-26T16:04:01.231Z,17.50
2019-03-26T16:06:34.144Z,11.27
2019-03-26T16:09:05.166Z,15.07
2019-03-26T16:11:36.353Z,14.60
2019-03-26T16:14:06.681Z,12.57
2019-03-26T16:16:37.817Z,16.27
2019-03-26T16:19:08.653Z,17.33
2019-03-26T16:21:40.562Z,12.97
2019-03-26T16:24:15.557Z,16.70
2019-03-26T16:26:46.298Z,13.77
2019-03-26T16:29:17.293Z,13.57
2019-03-26T16:31:50.220Z,14.47
2019-03-26T16:34:21.453Z,10.13
2019-03-26T16:36:59.342Z,13.63
2019-03-26T16:39:24.564Z,14.93
2019-03-26T16:41:55.605Z,14.43
2019-03-26T16:44:26.233Z,14.73
2019-03-26T16:46:57.741Z,15.07
2019-03-26T16:49:27.853Z,10.70
2019-03-26T16:51:58.657Z,11.77
2019-03-26T16:54:28.393Z,14.97
2019-03-26T16:56:59.190Z,13.73
2019-03-26T16:59:29.349Z,11.43
2019-03-26T17:02:03.656Z,12.73
2019-03-26T17:04:34.853Z,9.73
2019-03-26T17:07:05.174Z,10.13
2019-03-26T17:09:36.109Z,12.27
2019-03-26T17:12:06.397Z,9.67
2019-03-26T17:14:36.293Z,11.73
2019-03-26T17:17:07.241Z,11.97
2019-03-26T17:19:37.441Z,15.50
2019-03-26T17:22:07.722Z,9.80
2019-03-26T17:24:38.668Z,12.97
2019-03-26T17:27:09.577Z,10.27
2019-03-26T17:29:40.417Z,8.97
2019-03-26T17:32:10.169Z,9.67
2019-03-26T17:34:41.629Z,14.17
2019-03-26T17:37:12.733Z,13.20
2019-03-26T17:39:43.605Z,11.17
2019-03-26T17:42:17.387Z,15.47
2019-03-26T17:44:47.201Z,12.87
2019-03-26T17:47:18.221Z,16.27
2019-03-26T17:49:48.434Z,8.83
2019-03-26T17:52:18.648Z,14.63
2019-03-26T17:54:51.815Z,10.93
2019-03-26T17:57:22.401Z,11.50
2019-03-26T17:59:52.656Z,15.10
2019-03-26T18:02:23.489Z,18.53
2019-03-26T18:04:56.234Z,9.03
2019-03-26T18:07:28.785Z,14.13
2019-03-26T18:10:00.645Z,10.33
2019-03-26T18:12:31.357Z,12.77
2019-03-26T18:15:02.240Z,15.10
2019-03-26T18:17:31.989Z,17.07
2019-03-26T18:20:01.774Z,16.20
2019-03-26T18:22:32.793Z,13.07
2019-03-26T18:25:03.813Z,13.83
2019-03-26T18:27:34.022Z,11.90
2019-03-26T18:30:05.819Z,13.70
2019-03-26T18:32:36.085Z,12.77
2019-03-26T18:35:09.497Z,16.90
2019-03-26T18:37:40.356Z,12.00
2019-03-26T18:40:10.434Z,12.93
2019-03-26T18:42:44.395Z,19.33
2019-03-26T18:45:13.156Z,13.93
2019-03-26T18:47:43.024Z,16.60
2019-03-26T18:50:13.473Z,18.50
2019-03-26T18:52:47.333Z,14.17
2019-03-26T18:55:18.598Z,15.47
2019-03-26T18:57:49.474Z,15.73
2019-03-26T19:00:23.523Z,18.70
2019-03-26T19:02:53.285Z,16.83
2019-03-26T19:05:24.818Z,38.03
2019-03-26T19:07:54.749Z,17.37
2019-03-26T19:10:28.567Z,13.20
2019-03-26T19:12:58.594Z,17.53
2019-03-26T19:15:28.553Z,18.20
2019-03-26T19:18:01.103Z,15.00
2019-03-26T19:20:33.042Z,14.63
2019-03-26T19:23:04.877Z,14.53
2019-03-26T19:25:35.632Z,19.20
2019-03-26T19:28:06.545Z,19.90
2019-03-26T19:30:37.589Z,16.27
2019-03-26T19:33:07.585Z,12.97
2019-03-26T19:35:37.589Z,16.50
2019-03-26T19:38:07.565Z,16.53
2019-03-26T19:40:38.547Z,14.47
2019-03-26T19:43:11.271Z,19.60
2019-03-26T19:45:40.748Z,17.53
2019-03-26T19:48:11.846Z,14.63
2019-03-26T19:50:42.985Z,15.63
2019-03-26T19:53:13.825Z,17.43
2019-03-26T19:55:43.602Z,14.33
2019-03-26T19:58:13.494Z,20.20
2019-03-26T20:00:44.237Z,17.17
2019-03-26T20:03:14.217Z,19.67
2019-03-26T20:05:44.196Z,21.23
2019-03-26T20:08:14.896Z,17.43
2019-03-26T20:10:45.730Z,21.43
2019-03-26T20:13:24.278Z,16.40
2019-03-26T20:15:48.841Z,22.87
2019-03-26T20:18:19.023Z,19.00
2019-03-26T20:20:49.857Z,15.03
2019-03-26T20:23:20.674Z,17.23
2019-03-26T20:25:51.693Z,23.27
2019-03-26T20:28:22.565Z,24.73
2019-03-26T20:30:53.285Z,20.73
2019-03-26T20:33:24.002Z,19.77
2019-03-26T20:35:55.415Z,18.27
2019-03-26T20:38:25.602Z,26.63
2019-03-26T20:40:57.309Z,18.03
2019-03-26T20:43:37.198Z,24.20
2019-03-26T20:46:01.429Z,18.53
2019-03-26T20:48:32.555Z,20.97
2019-03-26T20:51:04.689Z,21.37
2019-03-26T20:53:35.578Z,19.67
2019-03-26T20:56:07.129Z,24.67
2019-03-26T20:58:37.877Z,15.93
2019-03-26T21:01:09.085Z,19.07
2019-03-26T21:03:39.801Z,18.57
2019-03-26T21:06:09.894Z,17.63
2019-03-26T21:08:43.377Z,18.07
2019-03-26T21:11:13.521Z,18.93
2019-03-26T21:13:50.735Z,21.30
2019-03-26T21:16:14.869Z,26.13
2019-03-26T21:18:48.250Z,18.80
2019-03-26T21:21:19.456Z,21.03
2019-03-26T21:23:50.468Z,25.57
2019-03-26T21:26:21.113Z,25.10
2019-03-26T21:28:52.098Z,23.30
2019-03-26T21:31:23.273Z,21.00
2019-03-26T21:33:54.406Z,24.00
2019-03-26T21:36:25.238Z,24.67
2019-03-26T21:38:54.989Z,26.67
2019-03-26T21:41:24.253Z,22.63
2019-03-26T21:44:03.513Z,21.40
2019-03-26T21:46:25.991Z,19.40
2019-03-26T21:48:56.854Z,21.17
2019-03-26T21:51:29.264Z,25.07
2019-03-26T21:54:00.647Z,25.07
2019-03-26T21:56:32.325Z,23.80
2019-03-26T21:59:02.965Z,16.87
2019-03-26T22:01:33.985Z,25.87
2019-03-26T22:04:04.265Z,18.67
2019-03-26T22:06:36.873Z,17.30
2019-03-26T22:09:09.149Z,20.10
2019-03-26T22:11:49.262Z,22.00
2019-03-26T22:14:17.778Z,24.60
2019-03-26T22:16:43.607Z,29.23
2019-03-26T22:19:27.587Z,24.47
2019-03-26T22:21:46.198Z,18.03
2019-03-26T22:24:17.379Z,25.60
2019-03-26T22:26:49.757Z,25.70
2019-03-26T22:29:20.636Z,21.73
2019-03-26T22:31:51.474Z,21.77
2019-03-26T22:34:21.573Z,18.57
2019-03-26T22:36:52.620Z,27.43
2019-03-26T22:39:25.428Z,21.97
2019-03-26T22:41:56.473Z,22.53
2019-03-26T22:44:31.612Z,17.87
2019-03-26T22:46:58.944Z,23.67
2019-03-26T22:49:30.197Z,28.47
2019-03-26T22:52:00.249Z,22.30
2019-03-26T22:54:30.085Z,22.83
2019-03-26T22:57:02.903Z,21.70
2019-03-26T22:59:34.807Z,22.63
2019-03-26T23:02:06.677Z,28.50
2019-03-26T23:04:38.950Z,20.43
2019-03-26T23:07:09.174Z,27.33
2019-03-26T23:09:39.362Z,27.73
2019-03-26T23:12:13.556Z,22.43
2019-03-26T23:14:45.423Z,20.03
2019-03-26T23:17:17.561Z,26.60
2019-03-26T23:19:47.493Z,24.50
2019-03-26T23:22:17.357Z,24.87
2019-03-26T23:24:49.358Z,22.23
2019-03-26T23:27:19.203Z,18.57
2019-03-26T23:29:50.633Z,22.70
2019-03-26T23:32:24.533Z,26.23
2019-03-26T23:34:54.579Z,23.93
2019-03-26T23:37:25.720Z,28.33
2019-03-26T23:39:56.552Z,23.70
2019-03-26T23:42:27.673Z,28.83
2019-03-26T23:44:58.871Z,23.00
2019-03-26T23:47:29.550Z,25.37
2019-03-26T23:50:00.562Z,26.20
2019-03-26T23:52:31.437Z,23.87
2019-03-26T23:55:01.581Z,29.40
2019-03-26T23:57:37.178Z,30.93
